Monday, December 18, 2017, 5:47 AM EST

KDOV, Dover Air Force Base

Location: Dover, DE, United States Lat: 39.133
Local Time: 5:47 AM EST (10:47 GMT) Lon: -75.467
Time Zone: US/Eastern Elev: 29 ft

Show me the last for .
Show Decoded

2017-12-18 04:56 METAR KDOV 180956Z AUTO 34005KT 6SM BR OVC060 04/04 A3011 RMK AO2 SLP200
                 T00370037 $ =
2017-12-18 03:56 METAR KDOV 180856Z AUTO 00000KT 7SM OVC065 04/04 A3011 RMK AO2 SLP200 T00420042
                 56013 $ =
2017-12-18 02:56 METAR KDOV 180756Z AUTO 00000KT 7SM BKN065 OVC080 04/04 A3011 RMK AO2 SLP200
                 T00350035 $ =
2017-12-18 01:56 METAR KDOV 180656Z AUTO 16003KT 10SM OVC070 04/04 A3013 RMK AO2 SLP206 T00390039
                 $ =
2017-12-18 00:56 METAR KDOV 180556Z AUTO 13004KT 10SM OVC070 04/04 A3014 RMK AO2 SLP210 60000
                 T00420042 10046 20035 58009 $ =
2017-12-17 23:56 METAR KDOV 180456Z AUTO 07007KT 10SM FEW060 04/04 A3016 RMK AO2
                 RAE34DZB34E38RAB38E50 SLP216 P0000 T00380038 400941030 $ =
2017-12-17 23:50 METAR KDOV 180450Z AUTO 07007KT 10SM FEW060 04/04 A3016 RMK AO2
                 RAE34DZB34E38RAB38E50 SLP216 $ =
2017-12-17 23:23 METAR KDOV 180423Z AUTO 06004KT 10SM -RA FEW055 04/04 A3017 RMK AO2 SLP220 $ =
2017-12-17 23:22 METAR KDOV 180422Z AUTO 07004KT 10SM CLR 04/04 A3018 RMK AO2 SLP223 $ =
2017-12-17 23:12 METAR KDOV 180412Z AUTO 04003KT 10SM -RA FEW055 04/04 A3018 RMK AO2 SLP223 $ =
2017-12-17 23:08 METAR KDOV 180408Z AUTO 02005KT 10SM CLR 04/04 A3018 RMK AO2 SLP223 $ =
2017-12-17 22:56 METAR KDOV 180356Z AUTO 03005KT 10SM -RA FEW070 05/05 A3018 RMK AO2 RAB51 SLP223
                 P0000 T00450045 $ =
2017-12-17 22:51 METAR KDOV 180351Z AUTO 04006KT 10SM -RA SCT070 05/05 A3017 RMK AO2 RAB51 SLP220
                 $ =
2017-12-17 21:56 METAR KDOV 180256Z AUTO 07004KT 10SM OVC100 04/04 A3017 RMK AO2 SLP220 T00400040
                 57015 $ =
2017-12-17 20:56 METAR KDOV 180156Z AUTO 05005KT 9SM BKN110 04/04 A3018 RMK AO2 SLP223 T00380038
                 $ =
2017-12-17 19:56 METAR KDOV 180056Z AUTO 00000KT 10SM CLR 04/04 A3021 RMK AO2 SLP234 T00380038 $
                 =
2017-12-17 18:56 METAR KDOV 172356Z AUTO 09004KT 10SM CLR 03/03 A3022 RMK AO2 SLP237 T00340034
                 10082 20032 53004 $ =
2017-12-17 17:56 METAR KDOV 172256Z AUTO 01003KT 10SM CLR 03/03 A3022 RMK AO2 SLP237 T00320032 $
                 =
2017-12-17 16:56 METAR KDOV 172156Z AUTO 00000KT 10SM SCT140 04/04 A3020 RMK AO2 SLP230 T00380038
                 $ =
2017-12-17 15:56 METAR KDOV 172056Z AUTO 10003KT 10SM CLR 04/02 A3020 RMK AO2 SLP230 T00440019
                 55006 $ =
2017-12-17 14:56 METAR KDOV 171956Z AUTO 09004KT 10SM CLR 05/02 A3020 RMK AO2 SLP230 T00490021 $
                 =
2017-12-17 13:56 METAR KDOV 171856Z AUTO 07005KT 10SM SCT160 06/01 A3020 RMK AO2 SLP230 T00590014
                 $ =
2017-12-17 12:56 METAR KDOV 171756Z AUTO 07005KT 10SM SCT190 08/03 A3022 RMK AO2 SLP237 T00780029
                 10094 21023 57017 $ =
2017-12-17 11:56 METAR KDOV 171656Z AUTO 00000KT 10SM FEW210 09/02 A3025 RMK AO2 SLP247 T00940016
                 $ =
2017-12-17 10:56 METAR KDOV 171556Z AUTO 00000KT 10SM CLR 08/01 A3026 RMK AO2 SLP250 T00770011 $
                 =
2017-12-17 09:56 METAR KDOV 171456Z AUTO 00000KT 10SM CLR 05/03 A3027 RMK AO2 SLP254 T00490026
                 50003 $ =
2017-12-17 08:56 METAR KDOV 171356Z AUTO 00000KT 10SM CLR 02/02 A3026 RMK AO2 SLP251 T00150015 $
                 =
2017-12-17 07:56 METAR KDOV 171256Z AUTO 00000KT 10SM CLR M02/M02 A3027 RMK AO2 SLP254 T10191019
                 $ =
2017-12-17 06:56 METAR KDOV 171156Z AUTO 19003KT 10SM CLR M02/M02 A3026 RMK AO2 SLP251 T10231023
                 10000 21030 53011 $ =
2017-12-17 05:56 METAR KDOV 171056Z AUTO 00000KT 10SM CLR M02/M02 A3024 RMK AO2 SLP244 T10191019
                 $ =

Support USWX by starting your Amazon purchase here.